Time;durP1;ratioP1;P1;durP2;ratioP2;P2;SDS_P1;SDS_P2;PMS_P1;PMS_P2;Temp;Humidity;BMP_temperature;BMP_pressure;BME280_temperature;BME280_humidity;BME280_pressure;Samples;Min_cycle;Max_cycle;Signal;HPM_P1;HPM_P2
2020/12/23 00:01:43;;;;;;;1999.90;999.90;;;;;;;11.00;68.86;101095.03;15689950;28;20461;-54
2020/12/23 00:09:17;;;;;;;1999.90;999.90;;;;;;;11.03;69.35;101093.56;15718873;28;20041;-52
2020/12/23 00:16:50;;;;;;;1999.90;999.90;;;;;;;10.96;68.57;101068.94;15681910;28;20045;-54
2020/12/23 00:24:24;;;;;;;1999.90;999.90;;;;;;;10.65;68.50;101069.06;15689635;28;20045;-53
2020/12/23 00:31:57;;;;;;;1999.90;999.90;;;;;;;10.74;67.71;101060.69;15721754;28;20440;-55
2020/12/23 00:39:30;;;;;;;1999.90;999.90;;;;;;;10.65;67.25;101081.03;15691396;28;20041;-55
2020/12/23 00:47:03;;;;;;;1999.90;999.90;;;;;;;10.67;66.64;101100.25;15710024;28;20461;-56
2020/12/23 00:54:37;;;;;;;1999.90;999.90;;;;;;;10.55;65.33;101098.06;15702836;28;20144;-56
2020/12/23 01:02:11;;;;;;;1999.90;999.90;;;;;;;10.46;65.56;101079.66;15684367;28;20041;-55
2020/12/23 01:09:44;;;;;;;1999.90;999.90;;;;;;;10.22;65.38;101080.06;15705804;28;20044;-57
2020/12/23 01:17:17;;;;;;;1999.90;999.90;;;;;;;10.36;66.03;101084.38;15699254;28;20523;-56
2020/12/23 01:24:50;;;;;;;1999.90;999.90;;;;;;;10.46;65.73;101085.25;15707904;28;20140;-56
2020/12/23 01:32:23;;;;;;;1999.90;999.90;;;;;;;10.44;66.47;101082.78;15709106;28;20143;-58
2020/12/23 01:39:57;;;;;;;1999.90;999.90;;;;;;;10.46;65.61;101060.94;15695513;28;20056;-55
2020/12/23 01:47:31;;;;;;;1999.90;999.90;;;;;;;10.47;65.47;101062.59;15714524;28;20045;-58
2020/12/23 01:55:04;;;;;;;;;;;;;;;10.54;65.64;101073.28;15718005;28;20055;-58
2020/12/23 02:02:38;;;;;;;1999.90;999.90;;;;;;;10.40;64.79;101077.00;15715796;28;19920;-53
2020/12/23 02:10:11;;;;;;;1999.90;999.90;;;;;;;10.45;65.52;101087.22;15695532;28;20105;-58
2020/12/23 02:17:44;;;;;;;1999.90;999.90;;;;;;;10.44;65.29;101073.59;15697141;28;20459;-57
2020/12/23 02:25:18;;;;;;;1999.90;999.90;;;;;;;10.52;65.38;101092.31;15727939;28;20471;-56
2020/12/23 02:32:50;;;;;;;1999.90;999.90;;;;;;;10.33;66.48;101078.66;15695883;28;20102;-56
2020/12/23 02:40:27;;;;;;;1999.90;999.90;;;;;;;10.44;66.18;101071.63;15715061;28;20421;-58
2020/12/23 02:47:59;;;;;;;1999.90;999.90;;;;;;;10.27;66.63;101074.34;15694611;28;20539;-56
2020/12/23 02:55:33;;;;;;;1999.90;999.90;;;;;;;10.41;66.10;101077.81;15678965;28;20095;-57
2020/12/23 03:03:06;;;;;;;1999.90;999.90;;;;;;;10.47;64.96;101053.41;15667541;28;20047;-56
2020/12/23 03:10:39;;;;;;;1999.90;999.90;;;;;;;10.49;64.25;101034.38;15691946;28;20400;-55
2020/12/23 03:18:12;;;;;;;1999.90;999.90;;;;;;;10.45;64.17;101039.78;15683032;28;20117;-55
2020/12/23 03:25:45;;;;;;;1999.90;999.90;;;;;;;10.47;64.28;101042.25;15713567;28;20386;-55
2020/12/23 03:33:18;;;;;;;1999.90;999.90;;;;;;;10.28;64.61;101046.13;15684834;28;20037;-52
2020/12/23 03:40:52;;;;;;;1999.90;999.90;;;;;;;10.16;64.93;101062.63;15696085;28;20143;-51
2020/12/23 03:48:24;;;;;;;1999.90;999.90;;;;;;;10.24;64.94;101053.50;15680222;28;20051;-53
2020/12/23 03:55:58;;;;;;;1999.90;999.90;;;;;;;10.23;64.66;101064.97;15727184;28;20186;-57
2020/12/23 04:03:31;;;;;;;1999.90;999.90;;;;;;;10.33;65.61;101067.47;15706451;28;20299;-50
2020/12/23 04:11:04;;;;;;;1999.90;999.90;;;;;;;10.31;66.34;101067.78;15706433;28;20426;-53
2020/12/23 04:18:37;;;;;;;1999.90;999.90;;;;;;;10.25;65.69;101088.63;15698829;28;20040;-55
2020/12/23 04:26:10;;;;;;;1999.90;999.90;;;;;;;10.25;66.29;101080.25;15717988;28;20186;-51
2020/12/23 04:33:44;;;;;;;1999.90;999.90;;;;;;;10.34;65.81;101088.66;15723571;28;20055;-49
2020/12/23 04:41:17;;;;;;;1999.90;999.90;;;;;;;10.17;66.76;101077.38;15700143;28;20049;-52
2020/12/23 04:48:55;;;;;;;1999.90;999.90;;;;;;;9.82;66.54;101066.06;15686544;28;20047;-50
2020/12/23 04:56:32;;;;;;;1999.90;999.90;;;;;;;9.77;66.92;101071.75;15703568;28;20507;-49
2020/12/23 05:04:05;;;;;;;1999.90;999.90;;;;;;;9.71;67.23;101073.06;15704963;28;20033;-49
2020/12/23 05:11:39;;;;;;;1999.90;999.90;;;;;;;9.89;66.75;101052.47;15718613;28;20058;-51
2020/12/23 05:19:16;;;;;;;1999.90;999.90;;;;;;;10.00;66.25;101066.97;15693950;28;20048;-49
2020/12/23 05:26:57;;;;;;;1999.90;999.90;;;;;;;10.13;66.75;101075.25;15699838;28;20517;-51
2020/12/23 05:34:32;;;;;;;1999.90;999.90;;;;;;;10.36;66.34;101070.44;15716778;28;20056;-52
2020/12/23 05:42:08;;;;;;;1999.90;999.90;;;;;;;10.27;66.75;101060.41;15707776;28;20116;-50
2020/12/23 05:49:40;;;;;;;1999.90;999.90;;;;;;;10.10;68.39;101064.72;15696204;28;20089;-50
2020/12/23 05:57:14;;;;;;;1999.90;999.90;;;;;;;9.95;68.97;101073.50;15685737;28;20139;-49
2020/12/23 06:04:47;;;;;;;1999.90;999.90;;;;;;;9.99;68.15;101079.25;15685773;28;20127;-50
2020/12/23 06:12:22;;;;;;;1999.90;999.90;;;;;;;10.00;67.39;101067.78;15724672;28;20048;-50
2020/12/23 06:19:58;;;;;;;1999.90;999.90;;;;;;;10.06;68.16;101085.22;15708245;28;20561;-49
2020/12/23 06:27:33;;;;;;;1999.90;999.90;;;;;;;10.11;67.17;101088.69;15724998;28;20120;-52
2020/12/23 06:35:07;;;;;;;1999.90;999.90;;;;;;;9.89;68.41;101082.31;15692632;28;20041;-49
2020/12/23 06:42:48;;;;;;;1999.90;999.90;;;;;;;10.07;67.98;101086.84;15698896;28;20246;-51
2020/12/23 06:50:31;;;;;;;1999.90;999.90;;;;;;;9.99;67.93;101077.28;15701448;28;20045;-51
2020/12/23 06:58:04;;;;;;;1999.90;999.90;;;;;;;9.83;69.25;101076.06;15672098;28;20073;-52
2020/12/23 07:05:45;;;;;;;1999.90;999.90;;;;;;;9.79;69.67;101080.63;15654251;28;20093;-48
2020/12/23 07:13:20;;;;;;;1999.90;999.90;;;;;;;9.59;70.18;101087.56;15674457;28;20059;-51
2020/12/23 07:20:59;;;;;;;1999.90;999.90;;;;;;;9.53;71.07;101098.00;15665649;28;20037;-49
2020/12/23 07:28:37;;;;;;;1999.90;999.90;;;;;;;9.30;72.02;101092.75;15682900;28;20049;-48
2020/12/23 07:36:10;;;;;;;1999.90;999.90;;;;;;;9.35;71.79;101087.88;15664779;28;20248;-50
2020/12/23 07:43:44;;;;;;;1999.90;999.90;;;;;;;9.26;72.82;101096.16;15682520;28;20344;-53
2020/12/23 07:51:16;;;;;;;1999.90;999.90;;;;;;;9.32;73.00;101096.03;15681954;28;20068;-50
2020/12/23 07:58:50;;;;;;;1999.90;999.90;;;;;;;9.48;72.35;101089.78;15681428;28;20041;-51
2020/12/23 08:06:26;;;;;;;1999.90;999.90;;;;;;;9.57;72.08;101094.56;15681422;28;20048;-53
2020/12/23 08:14:02;;;;;;;1999.90;999.90;;;;;;;9.64;71.23;101104.16;15681069;28;20049;-52
2020/12/23 08:21:34;;;;;;;1999.90;999.90;;;;;;;9.76;71.09;101100.78;15663095;28;20064;-54
2020/12/23 08:29:08;;;;;;;1999.90;999.90;;;;;;;9.76;70.96;101095.19;15679472;28;20056;-49
2020/12/23 08:36:41;;;;;;;1999.90;999.90;;;;;;;9.79;70.33;101106.53;15680294;28;20059;-48
2020/12/23 08:44:20;;;;;;;1999.90;999.90;;;;;;;9.58;72.38;101105.41;15679174;28;20052;-49
2020/12/23 08:51:53;;;;;;;1999.90;999.90;;;;;;;9.45;72.76;101092.38;15678352;28;20041;-53
2020/12/23 08:59:27;;;;;;;1999.90;999.90;;;;;;;9.45;72.97;101076.47;15677941;28;20095;-54
2020/12/23 09:07:00;;;;;;;1999.90;999.90;;;;;;;9.30;73.72;101090.78;15678039;28;20048;-54
2020/12/23 09:14:36;;;;;;;1999.90;999.90;;;;;;;9.69;72.39;101098.47;15659508;28;20044;-55
2020/12/23 09:22:09;;;;;;;1999.90;999.90;;;;;;;9.54;72.84;101084.91;15743866;22;20056;-57
2020/12/23 09:29:42;;;;;;;1999.90;999.90;;;;;;;9.38;73.51;101080.84;15790221;28;20100;-58
2020/12/23 09:37:15;;;;;;;;;;;;;;;9.47;73.80;101060.25;15789493;28;20052;-59
2020/12/23 09:44:49;;;;;;;1999.90;999.90;;;;;;;9.33;74.71;101065.09;15790871;28;19931;-57
2020/12/23 09:52:22;;;;;;;1999.90;999.90;;;;;;;9.23;76.22;101038.31;15812354;28;20051;-59
2020/12/23 09:59:56;;;;;;;1999.90;999.90;;;;;;;9.45;75.12;101039.44;15831423;28;20036;-59
2020/12/23 10:07:29;;;;;;;1999.90;999.90;;;;;;;9.60;74.56;101033.50;15839036;28;20036;-59
2020/12/23 10:15:03;;;;;;;1999.90;999.90;;;;;;;9.56;74.52;101043.59;15818932;28;20541;-58
2020/12/23 10:22:36;;;;;;;1999.90;999.90;;;;;;;9.41;74.88;101035.66;15804097;28;20036;-56
2020/12/23 10:30:09;;;;;;;1999.90;999.90;;;;;;;9.12;76.26;101027.75;15787070;28;20135;-56
2020/12/23 10:37:42;;;;;;;1999.90;999.90;;;;;;;8.86;77.22;101019.19;15804325;28;20515;-58
2020/12/23 10:45:16;;;;;;;1999.90;999.90;;;;;;;9.20;76.30;101007.50;15786415;28;20105;-57
2020/12/23 10:52:48;;;;;;;1999.90;999.90;;;;;;;9.29;75.67;100983.31;15815796;28;20516;-53
2020/12/23 11:00:22;;;;;;;1999.90;999.90;;;;;;;9.09;77.17;100967.97;15816902;28;20068;-53
2020/12/23 11:07:55;;;;;;;;;;;;;;;9.53;75.31;100961.50;15817437;28;20044;-58
2020/12/23 11:15:28;;;;;;;1999.90;999.90;;;;;;;9.40;75.79;100950.47;15798725;28;19924;-58
2020/12/23 11:23:01;;;;;;;1999.90;999.90;;;;;;;9.26;76.14;100929.06;15816196;28;20048;-54
2020/12/23 11:30:34;;;;;;;1999.90;999.90;;;;;;;9.46;75.16;100933.28;15797738;28;20105;-58
2020/12/23 11:38:07;;;;;;;1999.90;999.90;;;;;;;9.39;76.25;100907.03;15794974;28;20115;-59
2020/12/23 11:45:41;;;;;;;1999.90;999.90;;;;;;;9.62;75.25;100897.47;15779337;28;20052;-56
2020/12/23 11:53:13;;;;;;;1999.90;999.90;;;;;;;9.42;75.61;100886.91;15795682;28;20040;-60
2020/12/23 12:00:48;;;;;;;1999.90;999.90;;;;;;;9.47;75.60;100862.50;15794049;28;20471;-56
2020/12/23 12:08:21;;;;;;;1999.90;999.90;;;;;;;9.75;74.08;100854.72;15812487;28;20068;-59
2020/12/23 12:15:54;;;;;;;1999.90;999.90;;;;;;;9.80;74.05;100854.59;15794260;28;20201;-56
2020/12/23 12:23:27;;;;;;;1999.90;999.90;;;;;;;9.78;73.90;100862.41;15793331;28;20051;-58
2020/12/23 12:31:01;;;;;;;1999.90;999.90;;;;;;;9.99;73.56;100854.25;15810706;28;20109;-57
2020/12/23 12:38:33;;;;;;;1999.90;999.90;;;;;;;10.09;72.99;100833.63;15792972;28;20066;-58
2020/12/23 12:46:09;;;;;;;1999.90;999.90;;;;;;;9.98;73.47;100838.69;15810438;28;20067;-58
2020/12/23 12:53:41;;;;;;;1999.90;999.90;;;;;;;9.91;73.83;100818.88;15806559;28;20048;-57
2020/12/23 13:01:15;;;;;;;1999.90;999.90;;;;;;;9.77;74.53;100812.59;15822841;28;20043;-58
2020/12/23 13:08:47;;;;;;;1999.90;999.90;;;;;;;10.09;74.19;100800.97;15871604;28;20058;-55
2020/12/23 13:16:27;;;;;;;1999.90;999.90;;;;;;;9.94;75.25;100783.94;15775987;28;20473;-58
2020/12/23 13:24:01;;;;;;;1999.90;999.90;;;;;;;9.48;77.04;100774.19;15727582;28;20032;-57
2020/12/23 13:31:35;;;;;;;1999.90;999.90;;;;;;;9.68;76.83;100764.38;15748741;28;20130;-55
2020/12/23 13:39:10;;;;;;;1999.90;999.90;;;;;;;9.59;77.75;100749.63;15798895;28;20109;-58
2020/12/23 13:46:47;;;;;;;1999.90;999.90;;;;;;;9.48;78.26;100719.31;15744230;28;20560;-59
2020/12/23 13:54:19;;;;;;;1999.90;999.90;;;;;;;9.69;76.78;100713.94;15784835;28;20074;-60
2020/12/23 14:01:53;;;;;;;1999.90;999.90;;;;;;;9.62;77.87;100705.22;15754618;28;20147;-60
2020/12/23 14:09:26;;;;;;;1999.90;999.90;;;;;;;9.79;76.63;100701.59;15765763;28;20048;-59
2020/12/23 14:16:59;;;;;;;1999.90;999.90;;;;;;;9.77;76.85;100687.19;15763841;28;20131;-59
2020/12/23 14:24:32;;;;;;;1999.90;999.90;;;;;;;9.96;76.55;100672.91;15789273;28;20045;-60
2020/12/23 14:32:05;;;;;;;1999.90;999.90;;;;;;;9.78;77.18;100670.13;15784238;28;20536;-58
2020/12/23 14:39:38;;;;;;;1999.90;999.90;;;;;;;9.91;76.89;100662.78;15758964;28;20059;-59
2020/12/23 14:47:12;;;;;;;1999.90;999.90;;;;;;;9.94;77.07;100644.56;15760853;28;20036;-56
2020/12/23 14:54:44;;;;;;;1999.90;999.90;;;;;;;9.81;77.50;100633.28;15761677;28;20098;-59
2020/12/23 15:02:18;;;;;;;1999.90;999.90;;;;;;;9.94;77.58;100625.06;15781643;28;20118;-57
2020/12/23 15:09:51;;;;;;;;;;;;;;;9.79;78.17;100616.03;15757835;28;20036;-56
2020/12/23 15:17:27;;;;;;;1999.90;999.90;;;;;;;9.75;78.68;100606.72;15741829;28;19928;-58
2020/12/23 15:25:03;;;;;;;1999.90;999.90;;;;;;;9.93;77.57;100603.91;15770663;23;20132;-63
2020/12/23 15:32:37;;;;;;;1999.90;999.90;;;;;;;9.76;78.93;100586.06;15774403;28;20059;-63
2020/12/23 15:40:11;;;;;;;1999.90;999.90;;;;;;;9.85;78.52;100586.03;15802357;28;20043;-63
2020/12/23 15:47:46;;;;;;;1999.90;999.90;;;;;;;9.78;79.14;100572.59;15714013;28;20060;-63
2020/12/23 15:55:19;;;;;;;1999.90;999.90;;;;;;;9.61;80.51;100553.16;15747515;28;20505;-61
2020/12/23 16:02:53;;;;;;;1999.90;999.90;;;;;;;9.84;80.72;100550.97;15693329;28;20061;-62
2020/12/23 16:10:26;;;;;;;;;;;;;;;9.74;80.40;100526.25;15713726;28;20040;-63
2020/12/23 16:18:00;;;;;;;1999.90;999.90;;;;;;;9.85;80.48;100519.16;15674147;28;19924;-63
2020/12/23 16:25:32;;;;;;;1999.90;999.90;;;;;;;9.65;80.88;100515.13;15708074;28;20086;-63
2020/12/23 16:33:06;;;;;;;1999.90;999.90;;;;;;;9.82;81.16;100503.13;15690573;28;20140;-63
2020/12/23 16:40:38;;;;;;;1999.90;999.90;;;;;;;9.50;82.69;100490.59;15724368;28;20056;-64
2020/12/23 16:48:12;;;;;;;1999.90;999.90;;;;;;;9.54;82.70;100475.66;15690326;28;20041;-64
2020/12/23 16:55:45;;;;;;;;;;;;;;;9.60;82.54;100465.16;15766400;28;20048;-65
2020/12/23 17:03:19;;;;;;;1999.90;999.90;;;;;;;9.57;82.30;100449.09;15728917;28;19936;-63
2020/12/23 17:10:53;;;;;;;1999.90;999.90;;;;;;;9.59;82.51;100424.53;15744035;28;20110;-63
2020/12/23 17:18:27;;;;;;;1999.90;999.90;;;;;;;9.46;83.94;100409.66;15676013;28;20106;-64
2020/12/23 17:26:00;;;;;;;1999.90;999.90;;;;;;;9.67;82.88;100390.22;15725331;28;20540;-64
2020/12/23 17:33:33;;;;;;;1999.90;999.90;;;;;;;9.80;82.35;100380.84;15712634;28;20055;-64
2020/12/23 17:41:06;;;;;;;1999.90;999.90;;;;;;;9.78;82.40;100371.97;15686201;28;20032;-62
2020/12/23 17:48:39;;;;;;;1999.90;999.90;;;;;;;9.71;83.30;100356.97;15702545;28;20059;-63
2020/12/23 17:56:12;;;;;;;1999.90;999.90;;;;;;;9.88;82.56;100356.84;15688108;28;20127;-64
2020/12/23 18:03:46;;;;;;;1999.90;999.90;;;;;;;10.00;82.00;100345.78;15716828;28;20113;-63
2020/12/23 18:11:19;;;;;;;;;;;;;;;10.06;82.20;100324.09;15689638;28;20049;-63
2020/12/23 18:18:53;;;;;;;1999.90;999.90;;;;;;;10.15;81.79;100322.06;15688702;28;19936;-64
2020/12/23 18:26:28;;;;;;;1999.90;999.90;;;;;;;10.21;81.58;100292.00;15693942;28;20044;-63
2020/12/23 18:34:01;;;;;;;;;;;;;;;10.19;81.71;100277.59;15723848;28;20037;-65
2020/12/23 18:41:35;;;;;;;;;;;;;;;10.25;81.83;100256.75;15683469;28;19954;-65
2020/12/23 18:49:09;;;;;;;1999.90;999.90;;;;;;;10.48;80.83;100251.59;15735832;28;20330;-66
2020/12/23 18:56:41;;;;;;;1999.90;999.90;;;;;;;10.29;82.03;100238.97;15711368;28;20135;-64
2020/12/23 19:04:15;;;;;;;1999.90;999.90;;;;;;;10.50;81.70;100227.78;15691283;28;20048;-64
2020/12/23 19:11:48;;;;;;;;;;;;;;;10.85;80.27;100225.44;15717965;28;20051;-63
2020/12/23 19:19:21;;;;;;;1999.90;999.90;;;;;;;10.63;80.99;100197.97;15724042;28;20407;-63
2020/12/23 19:26:54;;;;;;;;;;;;;;;10.78;81.13;100193.66;15704429;28;20040;-65
2020/12/23 19:34:28;;;;;;;1999.90;999.90;;;;;;;10.89;80.34;100192.03;15767374;28;20446;-65
2020/12/23 19:42:00;;;;;;;1999.90;999.90;;;;;;;10.91;80.09;100173.78;15734485;28;20068;-63
2020/12/23 19:49:34;;;;;;;1999.90;999.90;;;;;;;10.57;81.83;100146.31;15752468;28;20048;-62
2020/12/23 19:57:11;;;;;;;1999.90;999.90;;;;;;;10.68;82.24;100136.34;15730699;28;20036;-63
2020/12/23 20:04:44;;;;;;;1999.90;999.90;;;;;;;10.60;82.56;100118.53;15777804;28;20046;-64
2020/12/23 20:12:17;;;;;;;1999.90;999.90;;;;;;;10.90;81.95;100112.72;15710704;28;20041;-64
2020/12/23 20:19:51;;;;;;;1999.90;999.90;;;;;;;11.01;81.95;100110.28;15679815;28;20402;-63
2020/12/23 20:27:24;;;;;;;1999.90;999.90;;;;;;;11.25;81.33;100116.66;15730957;28;20414;-65
2020/12/23 20:34:59;;;;;;;1999.90;999.90;;;;;;;11.24;81.94;100092.66;15695878;28;20409;-62
2020/12/23 20:42:31;;;;;;;1999.90;999.90;;;;;;;11.27;81.46;100077.19;15725629;28;20076;-64
2020/12/23 20:50:06;;;;;;;1999.90;999.90;;;;;;;11.65;80.38;100062.72;15669341;28;20462;-63
2020/12/23 20:57:38;;;;;;;1999.90;999.90;;;;;;;11.42;81.47;100039.31;15728886;28;20133;-63
2020/12/23 21:05:12;;;;;;;1999.90;999.90;;;;;;;11.50;81.26;100018.81;15692257;28;20086;-65
2020/12/23 21:12:45;;;;;;;1999.90;999.90;;;;;;;11.43;82.31;100041.75;15706043;28;20095;-64
2020/12/23 21:20:18;;;;;;;1999.90;999.90;;;;;;;11.67;81.64;100056.78;15726448;22;20064;-58
2020/12/23 21:27:51;;;;;;;1999.90;999.90;;;;;;;11.68;81.96;100069.63;15783480;28;20087;-53
2020/12/23 21:35:24;;;;;;;1999.90;999.90;;;;;;;11.76;82.06;100049.06;15729763;28;20075;-56
2020/12/23 21:42:57;;;;;;;;;;;;;;;11.93;81.72;100045.16;15679201;28;20148;-54
2020/12/23 21:50:30;;;;;;;1999.90;999.90;;;;;;;11.87;82.34;100029.81;15700759;28;20372;-56
2020/12/23 21:58:03;;;;;;;1999.90;999.90;;;;;;;11.81;83.26;100012.50;15692332;28;20085;-56
2020/12/23 22:05:37;;;;;;;1999.90;999.90;;;;;;;11.87;83.16;100027.00;15700907;28;20045;-58
2020/12/23 22:13:09;;;;;;;1999.90;999.90;;;;;;;11.82;83.36;100028.09;15702018;28;20446;-58
2020/12/23 22:20:43;;;;;;;1999.90;999.90;;;;;;;11.75;84.00;100025.06;15693461;28;20040;-60
2020/12/23 22:28:15;;;;;;;1999.90;999.90;;;;;;;11.77;83.73;100020.75;15683073;28;20037;-58
2020/12/23 22:35:49;;;;;;;1999.90;999.90;;;;;;;11.94;82.92;100030.00;15715286;28;20076;-57
2020/12/23 22:43:21;;;;;;;1999.90;999.90;;;;;;;11.99;83.93;100015.78;15689629;28;20053;-57
2020/12/23 22:50:55;;;;;;;1999.90;999.90;;;;;;;12.29;83.82;100022.53;15705532;28;20048;-59
2020/12/23 22:58:27;;;;;;;1999.90;999.90;;;;;;;12.40;83.51;100023.63;15743406;28;20445;-57
2020/12/23 23:06:01;;;;;;;1999.90;999.90;;;;;;;12.65;82.53;100007.44;15708766;28;20459;-58
2020/12/23 23:13:34;;;;;;;;;;;;;;;12.77;81.56;100005.69;15697031;28;20131;-57
2020/12/23 23:21:08;;;;;;;1999.90;999.90;;;;;;;12.61;81.98;100002.91;15708266;28;20264;-55
2020/12/23 23:28:41;;;;;;;1999.90;999.90;;;;;;;12.64;81.67;100005.81;15727505;28;20116;-57
2020/12/23 23:36:14;;;;;;;1999.90;999.90;;;;;;;12.73;81.46;100008.41;15695449;28;20475;-57
2020/12/23 23:43:47;;;;;;;;;;;;;;;12.52;82.63;99989.13;15698049;28;20044;-59
2020/12/23 23:51:20;;;;;;;1999.90;999.90;;;;;;;12.70;82.60;99981.13;15709519;28;20341;-59
2020/12/23 23:58:53;;;;;;;1999.90;999.90;;;;;;;12.63;82.87;99987.41;15724577;28;20386;-59
